Time;durP1;ratioP1;P1;durP2;ratioP2;P2;SDS_P1;SDS_P2;PMS_P1;PMS_P2;Temp;Humidity;BMP_temperature;BMP_pressure;BME280_temperature;BME280_humidity;BME280_pressure;Samples;Min_cycle;Max_cycle;Signal;HPM_P1;HPM_P2
2022/07/13 00:00:42;;;;;;;4.80;3.17;;;;;;;16.27;80.94;101277.06;1784628;80;21153;-60
2022/07/13 00:03:11;;;;;;;9.13;3.55;;;;;;;16.25;81.04;101274.09;1772675;80;21121;-60
2022/07/13 00:05:39;;;;;;;5.97;2.83;;;;;;;16.25;81.00;101276.30;1789902;79;21188;-60
2022/07/13 00:08:08;;;;;;;7.97;2.98;;;;;;;16.27;80.88;101270.87;1813857;79;21042;-60
2022/07/13 00:10:37;;;;;;;7.97;3.83;;;;;;;16.27;80.89;101268.22;1813882;79;21128;-60
2022/07/13 00:13:05;;;;;;;7.75;3.10;;;;;;;16.23;81.06;101270.66;1813775;79;21077;-60
2022/07/13 00:15:34;;;;;;;9.20;2.77;;;;;;;16.21;80.82;101274.72;1813866;79;21141;-60
2022/07/13 00:18:03;;;;;;;5.40;3.02;;;;;;;16.21;80.52;101275.61;1814079;79;21105;-60
2022/07/13 00:20:32;;;;;;;5.40;2.55;;;;;;;16.20;80.29;101275.20;1813987;79;21144;-60
2022/07/13 00:23:00;;;;;;;9.68;3.05;;;;;;;16.17;80.39;101275.36;1814003;79;21140;-59
2022/07/13 00:25:29;;;;;;;5.45;2.58;;;;;;;16.14;80.30;101272.89;1813906;79;21065;-61
2022/07/13 00:27:58;;;;;;;5.87;3.12;;;;;;;16.11;80.43;101274.37;1813976;79;21105;-60
2022/07/13 00:30:26;;;;;;;6.03;2.55;;;;;;;16.07;80.74;101274.16;1814102;79;21077;-60
2022/07/13 00:32:55;;;;;;;4.65;2.55;;;;;;;16.02;80.86;101276.19;1814197;79;21094;-60
2022/07/13 00:35:24;;;;;;;6.30;3.00;;;;;;;15.98;81.23;101275.97;1814292;79;21024;-60
2022/07/13 00:37:53;;;;;;;5.97;2.75;;;;;;;15.96;81.09;101280.52;1814288;79;21044;-59
2022/07/13 00:40:21;;;;;;;6.72;2.55;;;;;;;15.94;80.92;101277.08;1814318;79;21181;-59
2022/07/13 00:42:50;;;;;;;4.97;3.02;;;;;;;15.93;80.99;101278.01;1756739;82;21068;-59
2022/07/13 00:45:18;;;;;;;5.78;2.65;;;;;;;15.93;80.84;101278.86;1786518;80;21096;-59
2022/07/13 00:47:49;;;;;;;8.48;3.30;;;;;;;15.88;81.19;101278.27;1786576;80;21057;-59
2022/07/13 00:50:18;;;;;;;6.03;2.50;;;;;;;15.87;81.07;101274.36;1785377;80;21097;-59
2022/07/13 00:52:48;;;;;;;4.65;2.85;;;;;;;15.86;81.07;101269.52;1786017;80;21146;-60
2022/07/13 00:55:17;;;;;;;9.13;2.80;;;;;;;15.85;81.09;101274.44;1786698;80;21511;-61
2022/07/13 00:57:46;;;;;;;10.28;3.42;;;;;;;15.83;81.06;101270.52;1785378;79;21585;-61
2022/07/13 01:00:16;;;;;;;7.03;2.70;;;;;;;15.78;81.33;101268.58;1775374;81;21136;-60
2022/07/13 01:02:46;;;;;;;7.08;2.55;;;;;;;15.71;81.47;101264.97;1774935;81;21065;-62
2022/07/13 01:05:16;;;;;;;4.83;2.90;;;;;;;15.68;81.52;101256.70;1776391;81;21599;-62
2022/07/13 01:07:46;;;;;;;9.30;3.40;;;;;;;15.63;81.73;101256.08;1776600;81;21081;-60
2022/07/13 01:10:14;;;;;;;13.20;4.10;;;;;;;15.61;81.85;101253.98;1777523;81;21078;-60
2022/07/13 01:12:44;;;;;;;9.03;3.90;;;;;;;15.60;81.84;101249.15;1777897;81;21073;-60
2022/07/13 01:15:13;;;;;;;6.37;3.67;;;;;;;15.61;81.81;101257.96;1774890;81;21469;-60
2022/07/13 01:17:42;;;;;;;9.18;4.55;;;;;;;15.59;81.65;101254.53;1774773;81;21136;-60
2022/07/13 01:20:11;;;;;;;9.23;4.22;;;;;;;15.56;81.74;101258.66;1774897;81;21548;-60
2022/07/13 01:22:45;;;;;;;9.60;4.40;;;;;;;15.53;81.93;101253.50;1774921;81;21606;-61
2022/07/13 01:25:15;;;;;;;6.47;4.20;;;;;;;15.47;82.47;101251.17;1774710;81;21082;-60
2022/07/13 01:27:46;;;;;;;11.45;4.35;;;;;;;15.42;82.69;101256.73;1778166;81;21062;-60
2022/07/13 01:30:16;;;;;;;6.20;3.40;;;;;;;15.37;82.73;101252.97;1777819;81;21548;-60
2022/07/13 01:32:49;;;;;;;8.88;3.30;;;;;;;15.34;82.71;101250.47;1777829;81;21539;-60
2022/07/13 01:35:20;;;;;;;9.28;3.47;;;;;;;15.35;82.72;101253.52;1778115;80;21065;-60
2022/07/13 01:37:49;;;;;;;7.92;4.10;;;;;;;15.34;82.57;101250.94;1761526;81;21074;-60
2022/07/13 01:40:18;;;;;;;10.43;4.15;;;;;;;15.34;82.49;101250.94;1748524;82;21114;-60
2022/07/13 01:42:49;;;;;;;9.68;4.10;;;;;;;15.32;82.46;101254.14;1748152;82;21110;-60
2022/07/13 01:45:22;;;;;;;7.67;3.58;;;;;;;15.32;82.38;101252.81;1748300;82;21181;-60
2022/07/13 01:47:54;;;;;;;8.98;4.72;;;;;;;15.28;82.68;101253.91;1748250;82;21596;-60
2022/07/13 01:50:27;;;;;;;9.25;4.12;;;;;;;15.24;83.05;101251.41;1748265;82;21153;-60
2022/07/13 01:52:56;;;;;;;9.90;3.40;;;;;;;15.21;82.96;101249.38;1748254;82;21110;-60
2022/07/13 01:55:25;;;;;;;7.50;3.17;;;;;;;15.19;83.30;101249.92;1748156;82;21142;-60
2022/07/13 01:58:00;;;;;;;5.67;3.22;;;;;;;15.19;83.22;101252.58;1748235;82;21146;-60
2022/07/13 02:00:30;;;;;;;12.60;4.30;;;;;;;15.18;83.21;101254.37;1741538;82;21135;-60
2022/07/13 02:02:58;;;;;;;8.45;3.70;;;;;;;15.18;83.00;101252.17;1751525;82;21073;-59
2022/07/13 02:05:28;;;;;;;8.58;3.95;;;;;;;15.17;83.38;101251.32;1757016;82;21592;-59
2022/07/13 02:07:57;;;;;;;8.08;4.10;;;;;;;15.17;83.63;101251.80;1756954;82;21117;-59
2022/07/13 02:10:35;;;;;;;13.83;3.87;;;;;;;15.17;83.77;101254.45;1757063;81;21118;-58
2022/07/13 02:13:11;;;;;;;6.62;3.58;;;;;;;15.17;83.64;101253.13;1757084;82;21125;-60
2022/07/13 02:15:40;;;;;;;9.30;4.08;;;;;;;15.18;83.56;101254.37;1757103;81;21105;-60
2022/07/13 02:18:09;;;;;;;11.05;4.25;;;;;;;15.20;83.49;101252.98;1756978;82;21552;-60
2022/07/13 02:20:37;;;;;;;9.75;4.47;;;;;;;15.24;83.46;101254.53;1757050;82;21101;-59
2022/07/13 02:23:06;;;;;;;13.83;4.20;;;;;;;15.31;83.42;101256.39;1757043;82;21118;-61
2022/07/13 02:25:37;;;;;;;7.10;3.00;;;;;;;15.36;83.45;101256.58;1757026;82;21177;-58
2022/07/13 02:28:07;;;;;;;7.85;3.25;;;;;;;15.42;83.49;101254.08;1757163;82;21584;-60
2022/07/13 02:30:36;;;;;;;7.35;3.15;;;;;;;15.53;83.52;101251.73;1757078;82;21575;-60
2022/07/13 02:33:06;;;;;;;8.23;2.85;;;;;;;15.63;83.33;101252.10;1757001;82;21156;-59
2022/07/13 02:35:36;;;;;;;11.68;2.80;;;;;;;15.75;83.12;101256.81;1762022;81;21123;-58
2022/07/13 02:38:04;;;;;;;6.42;3.12;;;;;;;15.88;82.94;101247.73;1757033;82;21094;-58
2022/07/13 02:40:33;;;;;;;8.33;3.65;;;;;;;16.01;82.70;101250.11;1756719;82;21116;-58
2022/07/13 02:43:02;;;;;;;10.38;3.72;;;;;;;16.10;82.38;101240.80;1756582;82;21186;-59
2022/07/13 02:45:31;;;;;;;10.15;4.10;;;;;;;16.15;81.99;101238.72;1756833;82;21059;-59
2022/07/13 02:48:00;;;;;;;12.05;3.98;;;;;;;16.17;81.57;101238.64;1756788;81;21092;-60
2022/07/13 02:50:28;;;;;;;16.40;3.83;;;;;;;16.11;81.11;101234.52;1756766;82;21025;-60
2022/07/13 02:52:58;;;;;;;7.83;3.42;;;;;;;16.09;80.85;101235.08;1756791;82;21543;-60
2022/07/13 02:55:27;;;;;;;7.37;3.22;;;;;;;16.14;80.85;101225.55;1756810;82;21065;-59
2022/07/13 02:57:55;;;;;;;8.35;3.12;;;;;;;16.21;80.72;101232.21;1756693;82;21068;-59
2022/07/13 03:00:25;;;;;;;8.90;3.15;;;;;;;16.24;80.55;101231.20;1766709;81;21679;-59
2022/07/13 03:02:54;;;;;;;12.88;3.02;;;;;;;16.38;80.60;101229.98;1773798;81;21122;-59
2022/07/13 03:05:23;;;;;;;7.78;2.83;;;;;;;16.54;80.64;101232.17;1773890;81;21091;-59
2022/07/13 03:07:52;;;;;;;7.05;3.02;;;;;;;16.73;80.37;101233.78;1773981;81;21502;-59
2022/07/13 03:10:20;;;;;;;6.12;2.27;;;;;;;16.92;80.29;101225.14;1773748;81;21083;-60
2022/07/13 03:12:50;;;;;;;5.12;2.27;;;;;;;17.09;79.88;101224.64;1773783;80;21554;-59
2022/07/13 03:15:18;;;;;;;7.55;2.80;;;;;;;17.25;79.39;101225.45;1773793;81;21138;-59
2022/07/13 03:17:48;;;;;;;5.25;2.20;;;;;;;17.33;78.45;101227.65;1772831;81;21176;-60
2022/07/13 03:20:17;;;;;;;7.83;2.52;;;;;;;17.44;78.04;101226.53;1773578;81;21161;-60
2022/07/13 03:22:48;;;;;;;7.72;2.37;;;;;;;17.50;77.46;101226.63;1773156;80;21086;-60
2022/07/13 03:25:17;;;;;;;3.08;2.00;;;;;;;17.57;76.94;101227.98;1770763;81;21602;-60
2022/07/13 03:27:45;;;;;;;4.95;2.40;;;;;;;17.69;77.04;101228.57;1770803;81;21074;-60
2022/07/13 03:30:14;;;;;;;4.67;2.42;;;;;;;17.88;77.35;101218.14;1770771;81;21124;-59
2022/07/13 03:32:43;;;;;;;8.03;2.40;;;;;;;18.06;77.04;101224.14;1770994;81;21614;-60
2022/07/13 03:35:12;;;;;;;4.97;2.22;;;;;;;18.19;76.73;101222.89;1771780;81;21067;-61
2022/07/13 03:37:40;;;;;;;5.60;3.10;;;;;;;18.30;76.15;101211.06;1773762;81;21281;-60
2022/07/13 03:40:11;;;;;;;3.55;2.40;;;;;;;18.38;75.80;101210.08;1773772;81;21565;-61
2022/07/13 03:42:40;;;;;;;6.17;2.42;;;;;;;18.50;75.62;101209.78;1773931;81;21075;-59
2022/07/13 03:45:10;;;;;;;6.58;2.60;;;;;;;18.64;75.43;101211.53;1762315;81;21063;-59
2022/07/13 03:47:39;;;;;;;6.78;2.90;;;;;;;18.73;74.68;101209.59;1744199;82;21147;-60
2022/07/13 03:50:09;;;;;;;10.63;2.37;;;;;;;18.79;74.10;101204.33;1765688;81;21073;-59
2022/07/13 03:52:38;;;;;;;7.00;3.17;;;;;;;18.86;73.68;101210.52;1773790;81;21162;-59
2022/07/13 03:55:08;;;;;;;7.50;2.77;;;;;;;18.98;73.57;101207.53;1772832;81;21180;-60
2022/07/13 03:57:37;;;;;;;8.85;2.33;;;;;;;19.10;73.38;101213.84;1770855;81;21046;-59
2022/07/13 04:00:07;;;;;;;7.92;3.30;;;;;;;19.31;73.38;101208.00;1769179;81;21184;-60
2022/07/13 04:02:37;;;;;;;9.68;3.10;;;;;;;19.40;72.39;101211.38;1756560;82;21172;-59
2022/07/13 04:05:07;;;;;;;7.92;2.60;;;;;;;19.47;71.92;101212.17;1757565;81;21552;-58
2022/07/13 04:07:37;;;;;;;5.60;2.22;;;;;;;19.62;71.62;101215.63;1760073;81;21169;-60
2022/07/13 04:10:07;;;;;;;5.22;2.85;;;;;;;19.79;71.44;101206.91;1756918;82;21648;-58
2022/07/13 04:12:35;;;;;;;8.23;2.55;;;;;;;20.03;71.24;101209.69;1756871;82;21114;-58
2022/07/13 04:15:05;;;;;;;8.78;2.37;;;;;;;20.28;70.88;101215.45;1756723;82;21118;-59
2022/07/13 04:17:34;;;;;;;4.85;2.67;;;;;;;20.57;70.61;101213.81;1756982;82;21162;-59
2022/07/13 04:20:04;;;;;;;7.95;2.12;;;;;;;20.79;70.01;101212.61;1756820;82;21056;-58
2022/07/13 04:22:33;;;;;;;16.20;3.75;;;;;;;21.04;69.12;101213.43;1756841;82;21070;-60
2022/07/13 04:25:02;;;;;;;7.08;2.33;;;;;;;21.30;68.77;101211.93;1759026;81;21297;-60
2022/07/13 04:27:31;;;;;;;6.55;2.42;;;;;;;21.64;68.30;101210.70;1761365;81;21522;-59
2022/07/13 04:30:00;;;;;;;9.50;2.37;;;;;;;21.94;67.51;101206.07;1762454;80;21605;-59
2022/07/13 04:32:30;;;;;;;12.60;3.17;;;;;;;22.24;66.74;101197.88;1760449;80;21577;-59
2022/07/13 04:34:58;;;;;;;9.30;2.30;;;;;;;22.54;66.14;101205.30;1768087;80;21129;-58
2022/07/13 04:37:29;;;;;;;5.75;2.02;;;;;;;22.86;66.00;101203.09;1762526;81;21634;-59
2022/07/13 04:39:57;;;;;;;3.60;2.12;;;;;;;23.19;65.38;101202.61;1778548;80;21133;-59
2022/07/13 04:42:27;;;;;;;2.52;1.85;;;;;;;23.43;64.70;101205.88;1789149;80;21554;-58
2022/07/13 04:44:56;;;;;;;3.72;1.80;;;;;;;23.74;64.12;101205.03;1766908;80;21158;-59
2022/07/13 04:47:25;;;;;;;4.87;2.33;;;;;;;23.84;62.79;101200.09;1762391;81;21195;-59
2022/07/13 04:49:53;;;;;;;4.42;1.60;;;;;;;24.04;62.60;101198.33;1762440;81;21131;-60
2022/07/13 04:52:22;;;;;;;6.97;1.70;;;;;;;24.38;62.41;101195.80;1762477;81;20995;-60
2022/07/13 04:54:51;;;;;;;5.53;1.62;;;;;;;24.56;61.27;101192.80;1762453;81;21130;-59
2022/07/13 04:57:19;;;;;;;7.40;1.40;;;;;;;24.80;61.31;101192.89;1794887;80;21071;-60
2022/07/13 04:59:48;;;;;;;4.67;1.47;;;;;;;25.08;60.85;101192.52;1786592;80;21120;-59
2022/07/13 05:02:16;;;;;;;2.12;1.50;;;;;;;25.41;60.43;101188.52;1797936;79;21120;-60
2022/07/13 05:04:45;;;;;;;4.28;1.20;;;;;;;25.76;59.68;101193.72;1791640;80;21125;-59
2022/07/13 05:07:14;;;;;;;1.65;1.20;;;;;;;26.00;58.94;101191.03;1793584;80;21078;-60
2022/07/13 05:09:42;;;;;;;4.28;1.52;;;;;;;26.27;58.58;101196.08;1789170;80;21668;-59
2022/07/13 05:12:12;;;;;;;5.15;1.60;;;;;;;26.54;57.78;101193.34;1762562;81;21552;-59
2022/07/13 05:14:40;;;;;;;2.85;1.72;;;;;;;26.80;57.08;101189.91;1788977;80;21139;-60
2022/07/13 05:17:10;;;;;;;3.30;1.60;;;;;;;27.02;56.37;101185.00;1789058;80;21094;-59
2022/07/13 05:19:38;;;;;;;4.60;1.50;;;;;;;27.24;55.90;101191.27;1764113;81;21600;-60
2022/07/13 05:22:08;;;;;;;4.42;1.80;;;;;;;27.39;55.26;101183.94;1768186;81;21538;-60
2022/07/13 05:24:36;;;;;;;5.10;1.70;;;;;;;27.60;54.81;101184.41;1768079;81;21048;-60
2022/07/13 05:27:05;;;;;;;4.22;1.98;;;;;;;27.77;54.18;101183.15;1768127;81;21131;-60
2022/07/13 05:29:34;;;;;;;3.77;1.80;;;;;;;27.95;53.71;101175.81;1768818;80;21129;-59
2022/07/13 05:32:02;;;;;;;6.75;2.70;;;;;;;28.16;53.01;101179.95;1760747;81;21066;-60
2022/07/13 05:34:31;;;;;;;5.62;2.05;;;;;;;28.44;52.74;101185.45;1761304;81;21190;-59
2022/07/13 05:36:59;;;;;;;2.35;1.80;;;;;;;28.50;52.40;101180.70;1762440;81;21055;-60
2022/07/13 05:39:29;;;;;;;3.25;2.05;;;;;;;28.53;51.91;101182.77;1762467;81;21080;-60
2022/07/13 05:41:58;;;;;;;10.03;3.02;;;;;;;28.67;51.87;101182.12;1762534;81;21566;-59
2022/07/13 05:44:28;;;;;;;3.30;2.15;;;;;;;28.90;51.69;101174.66;1762432;81;21146;-60
2022/07/13 05:46:58;;;;;;;8.70;2.83;;;;;;;28.91;51.17;101176.37;1773349;80;21133;-61
2022/07/13 05:49:28;;;;;;;3.02;2.00;;;;;;;28.96;50.75;101169.94;1788918;80;21131;-60
2022/07/13 05:51:57;;;;;;;3.95;2.05;;;;;;;29.12;50.20;101171.77;1762313;80;21489;-60
2022/07/13 05:54:26;;;;;;;3.62;2.10;;;;;;;29.21;49.93;101172.97;1762530;81;21108;-60
2022/07/13 05:56:54;;;;;;;5.50;2.30;;;;;;;29.36;49.90;101173.63;1758988;81;21177;-59
2022/07/13 05:59:23;;;;;;;3.15;1.92;;;;;;;29.56;49.69;101170.86;1756653;82;21066;-60
2022/07/13 06:01:52;;;;;;;7.78;2.60;;;;;;;29.46;49.23;101170.23;1756686;82;21192;-60
2022/07/13 06:04:21;;;;;;;4.65;2.22;;;;;;;29.59;49.04;101165.61;1752664;81;21132;-60
2022/07/13 06:06:50;;;;;;;5.65;2.65;;;;;;;29.88;48.67;101166.39;1762421;81;21078;-60
2022/07/13 06:09:18;;;;;;;4.40;3.20;;;;;;;30.02;48.57;101163.42;1762544;81;21074;-64
2022/07/13 06:11:47;;;;;;;5.30;2.72;;;;;;;30.38;48.28;101167.83;1739116;81;21052;-63
2022/07/13 06:14:15;;;;;;;6.42;3.33;;;;;;;30.66;48.15;101167.81;1762077;81;21098;-63
2022/07/13 06:16:44;;;;;;;3.75;3.00;;;;;;;30.64;47.47;101163.91;1762400;81;21054;-63
2022/07/13 06:19:13;;;;;;;3.67;2.55;;;;;;;30.20;47.50;101158.56;1762405;81;21074;-63
2022/07/13 06:21:41;;;;;;;7.08;3.05;;;;;;;30.12;47.23;101151.84;1759280;81;21071;-63
2022/07/13 06:24:10;;;;;;;4.40;2.60;;;;;;;30.33;47.22;101151.22;1747513;81;21042;-63
2022/07/13 06:26:38;;;;;;;3.40;2.67;;;;;;;30.27;46.61;101151.05;1750833;81;21182;-63
2022/07/13 06:29:07;;;;;;;6.05;2.80;;;;;;;30.31;46.51;101149.17;1761358;81;21150;-62
2022/07/13 06:31:36;;;;;;;3.87;2.12;;;;;;;30.37;46.20;101146.27;1762423;81;21550;-63
2022/07/13 06:34:05;;;;;;;4.47;2.20;;;;;;;30.62;45.82;101153.74;1762537;81;21119;-64
2022/07/13 06:36:34;;;;;;;5.25;1.60;;;;;;;30.74;45.20;101153.62;1762426;81;21080;-63
2022/07/13 06:39:03;;;;;;;6.30;2.10;;;;;;;31.02;44.90;101144.91;1762418;81;21507;-64
2022/07/13 06:41:33;;;;;;;4.67;1.60;;;;;;;31.19;43.87;101149.70;1762486;81;21146;-63
2022/07/13 06:44:01;;;;;;;3.05;1.50;;;;;;;31.54;43.69;101139.98;1762399;81;21072;-62
2022/07/13 06:46:30;;;;;;;2.70;1.98;;;;;;;31.67;42.62;101139.31;1762405;81;21562;-63
2022/07/13 06:48:59;;;;;;;2.90;2.10;;;;;;;31.94;42.86;101135.55;1762501;81;21075;-62
2022/07/13 06:51:28;;;;;;;4.42;1.72;;;;;;;32.37;42.52;101137.02;1762421;81;21071;-63
2022/07/13 06:53:56;;;;;;;3.33;1.80;;;;;;;32.58;41.93;101133.98;1762409;81;21075;-63
2022/07/13 06:56:25;;;;;;;5.75;1.95;;;;;;;32.81;41.25;101134.62;1762537;81;21142;-62
2022/07/13 06:58:54;;;;;;;9.53;2.10;;;;;;;32.92;41.08;101134.58;1762427;81;21150;-62
2022/07/13 07:01:22;;;;;;;4.40;2.20;;;;;;;33.07;40.98;101129.88;1762389;81;21601;-63
2022/07/13 07:03:52;;;;;;;2.42;1.77;;;;;;;33.16;40.80;101125.13;1744957;81;21175;-63
2022/07/13 07:06:20;;;;;;;5.15;1.85;;;;;;;33.25;40.91;101119.83;1737572;82;21611;-63
2022/07/13 07:08:49;;;;;;;6.90;1.90;;;;;;;33.53;40.47;101119.46;1737534;82;21072;-63
2022/07/13 07:11:17;;;;;;;4.55;2.02;;;;;;;33.75;40.06;101118.33;1737459;82;21064;-63
2022/07/13 07:13:46;;;;;;;3.25;1.70;;;;;;;33.54;38.97;101119.27;1737464;82;21211;-63
2022/07/13 07:16:14;;;;;;;3.08;1.95;;;;;;;33.37;39.21;101129.67;1737429;82;21139;-64
2022/07/13 07:18:43;;;;;;;3.02;1.80;;;;;;;33.36;39.42;101125.25;1737365;82;21148;-63
2022/07/13 07:21:12;;;;;;;3.10;2.22;;;;;;;33.84;39.38;101117.09;1737524;82;21081;-63
2022/07/13 07:23:40;;;;;;;5.12;2.47;;;;;;;33.84;39.38;101117.09;1737491;82;21064;-63
2022/07/13 07:26:09;;;;;;;6.58;2.05;;;;;;;34.20;38.96;101120.61;1737443;82;21049;-63
2022/07/13 07:28:37;;;;;;;2.98;1.87;;;;;;;34.48;38.52;101125.91;1737415;82;21516;-63
2022/07/13 07:31:06;;;;;;;3.37;2.00;;;;;;;34.39;37.83;101114.32;1737294;82;21092;-63
2022/07/13 07:33:35;;;;;;;7.42;2.20;;;;;;;34.16;37.93;101120.16;1737449;81;21080;-62
2022/07/13 07:36:04;;;;;;;3.95;2.10;;;;;;;33.80;37.50;101115.83;1737551;82;21075;-63
2022/07/13 07:38:32;;;;;;;3.90;2.75;;;;;;;33.52;37.96;101109.60;1737533;82;21159;-63
2022/07/13 07:41:01;;;;;;;4.53;2.50;;;;;;;33.41;38.01;101108.28;1737395;82;21081;-63
2022/07/13 07:43:30;;;;;;;4.25;3.00;;;;;;;33.49;38.31;101111.36;1737365;82;21085;-64
2022/07/13 07:45:58;;;;;;;5.08;2.62;;;;;;;33.72;38.30;101110.56;1737435;82;21523;-63
2022/07/13 07:48:27;;;;;;;4.42;2.20;;;;;;;33.78;38.22;101100.17;1737397;82;21140;-63
2022/07/13 07:50:56;;;;;;;6.17;3.12;;;;;;;33.71;37.87;101106.66;1737431;82;21621;-62
2022/07/13 07:53:25;;;;;;;6.45;3.52;;;;;;;33.65;37.90;101102.33;1737535;82;21124;-63
2022/07/13 07:55:53;;;;;;;6.58;3.05;;;;;;;33.88;38.07;101094.84;1737362;81;21085;-63
2022/07/13 07:58:22;;;;;;;5.50;3.15;;;;;;;34.05;37.92;101098.91;1737420;82;21709;-63
2022/07/13 08:00:51;;;;;;;8.45;3.87;;;;;;;34.07;37.50;101088.61;1737418;82;21123;-63
2022/07/13 08:03:19;;;;;;;3.20;2.47;;;;;;;34.06;37.76;101075.15;1738945;81;21080;-62
2022/07/13 08:05:51;;;;;;;5.85;3.08;;;;;;;34.06;37.76;101075.15;1747923;82;21103;-62
2022/07/13 08:08:18;;;;;;;5.08;3.60;;;;;;;34.02;38.04;101085.65;1747762;82;21072;-63
2022/07/13 08:10:47;;;;;;;6.80;3.45;;;;;;;34.02;38.04;101085.65;1747803;82;21131;-63
2022/07/13 08:13:16;;;;;;;5.65;3.55;;;;;;;34.09;37.90;101056.98;1747948;82;21127;-62
2022/07/13 08:15:46;;;;;;;7.35;3.98;;;;;;;34.37;37.67;101078.91;1748060;82;21076;-63
2022/07/13 08:18:14;;;;;;;5.53;3.37;;;;;;;34.55;37.64;101078.91;1748024;82;21084;-63
2022/07/13 08:20:44;;;;;;;5.53;3.00;;;;;;;34.39;37.76;101069.75;1747958;82;21072;-62
2022/07/13 08:26:00;;;;;;;5.05;3.50;;;;;;;34.35;38.21;101069.86;1747908;82;21171;-64
2022/07/13 08:28:29;;;;;;;4.28;3.10;;;;;;;34.48;38.34;101063.56;1748027;81;21088;-62
2022/07/13 08:30:58;;;;;;;5.78;4.12;;;;;;;34.56;38.19;101059.23;1747898;82;21080;-62
2022/07/13 08:38:59;;;;;;;4.60;2.75;;;;;;;34.54;36.91;101053.97;1748002;82;21065;-63
2022/07/13 08:41:28;;;;;;;4.33;2.80;;;;;;;34.31;36.80;101060.41;1747929;82;21040;-62
2022/07/13 08:43:56;;;;;;;4.97;3.72;;;;;;;34.47;36.91;101057.23;1747939;82;21100;-63
2022/07/13 08:46:26;;;;;;;4.37;3.08;;;;;;;34.85;36.99;101060.71;1748153;82;21048;-63
2022/07/13 08:48:56;;;;;;;6.95;3.00;;;;;;;35.00;36.92;101057.20;1748023;81;21475;-65
2022/07/13 08:51:26;;;;;;;6.97;3.20;;;;;;;35.22;37.04;101055.60;1748080;82;21551;-63
2022/07/13 08:53:55;;;;;;;4.35;3.47;;;;;;;34.97;36.14;101056.28;1748042;82;21120;-62
2022/07/13 08:56:24;;;;;;;5.42;2.50;;;;;;;34.67;36.07;101049.02;1748061;82;21040;-63
2022/07/13 08:58:53;;;;;;;4.85;3.27;;;;;;;34.43;36.46;101058.17;1748029;82;21159;-62
2022/07/13 09:01:22;;;;;;;3.17;2.62;;;;;;;34.39;36.69;101039.69;1748141;81;21408;-63
2022/07/13 09:03:52;;;;;;;3.42;2.87;;;;;;;34.56;36.85;101028.62;1747972;81;21479;-63
2022/07/13 09:06:43;;;;;;;4.65;3.30;;;;;;;34.83;36.62;101043.67;1748034;82;21080;-62
2022/07/13 09:09:32;;;;;;;5.40;2.92;;;;;;;34.67;36.75;101034.52;1714534;82;21154;-62
2022/07/13 09:12:24;;;;;;;4.05;2.92;;;;;;;34.63;36.65;101038.20;1748122;82;21475;-62
2022/07/13 09:15:07;;;;;;;6.00;3.70;;;;;;;34.69;36.72;101030.53;1748175;82;21072;-62
2022/07/13 09:17:38;;;;;;;5.70;3.87;;;;;;;34.56;36.50;101025.06;1748149;82;21565;-63
2022/07/13 09:20:15;;;;;;;4.87;3.08;;;;;;;33.81;36.85;101026.05;1748290;82;22002;-63
2022/07/13 09:22:55;;;;;;;4.97;2.72;;;;;;;33.82;37.19;101014.05;1748032;82;21143;-62
2022/07/13 09:25:37;;;;;;;4.78;2.90;;;;;;;34.23;37.39;101010.88;1748025;82;21124;-63
2022/07/13 09:28:08;;;;;;;7.78;3.98;;;;;;;34.19;37.42;101015.91;1748119;82;21188;-62
2022/07/13 09:30:38;;;;;;;3.98;3.08;;;;;;;33.89;37.44;101002.31;1748025;82;21080;-62
2022/07/13 09:33:06;;;;;;;6.22;3.15;;;;;;;33.16;37.77;101013.80;1748068;82;21119;-62
2022/07/13 09:35:50;;;;;;;7.33;3.27;;;;;;;32.93;38.03;101013.55;1748031;82;21064;-62
2022/07/13 09:38:39;;;;;;;6.10;2.92;;;;;;;33.20;37.97;101017.80;1747937;82;21147;-62
2022/07/13 09:41:19;;;;;;;3.45;2.80;;;;;;;32.59;38.18;101016.59;1747910;81;21206;-62
2022/07/13 09:46:59;;;;;;;4.10;2.87;;;;;;;31.97;38.54;101007.72;1748012;82;21072;-62
2022/07/13 09:49:42;;;;;;;5.62;3.02;;;;;;;32.40;38.47;101010.42;1748004;82;21108;-62
2022/07/13 09:52:19;;;;;;;8.60;3.20;;;;;;;32.91;38.30;101007.98;1748074;82;21076;-62
2022/07/13 09:54:51;;;;;;;5.47;3.30;;;;;;;33.47;37.92;101008.67;1747866;82;21131;-62
2022/07/13 09:57:22;;;;;;;4.17;3.02;;;;;;;33.77;37.09;101004.30;1748116;82;21562;-62
2022/07/13 09:59:51;;;;;;;8.03;3.70;;;;;;;33.96;37.14;101010.00;1748015;81;21076;-63
2022/07/13 10:02:21;;;;;;;3.52;2.60;;;;;;;34.19;36.41;101003.62;1748027;81;21495;-62
2022/07/13 10:04:50;;;;;;;4.75;2.90;;;;;;;34.26;36.46;100999.53;1746269;82;21559;-63
2022/07/13 10:07:19;;;;;;;6.25;3.25;;;;;;;34.38;35.87;100989.66;1737387;81;21542;-63
2022/07/13 10:09:48;;;;;;;8.23;3.42;;;;;;;34.38;35.87;100989.66;1737446;82;21162;-63
2022/07/13 10:12:17;;;;;;;5.00;2.90;;;;;;;33.92;36.68;100984.99;1737585;82;21147;-62
2022/07/13 10:14:47;;;;;;;3.90;3.10;;;;;;;33.48;37.16;100989.06;1737466;82;21076;-62
2022/07/13 10:17:17;;;;;;;10.70;3.00;;;;;;;32.92;37.57;100984.58;1737588;82;21073;-63
2022/07/13 10:19:58;;;;;;;4.70;2.77;;;;;;;32.38;37.84;100979.28;1737394;82;21508;-62
2022/07/13 10:22:29;;;;;;;5.50;3.25;;;;;;;31.91;38.33;100976.13;1737474;82;21076;-62
2022/07/13 10:25:00;;;;;;;6.57;3.03;;;;;;;31.92;38.51;100978.33;1737995;81;21128;-62
2022/07/13 10:27:37;;;;;;;5.22;2.95;;;;;;;32.16;38.38;100967.58;1737512;82;21078;-62
2022/07/13 10:30:20;;;;;;;5.53;2.95;;;;;;;32.35;38.91;100966.56;1737654;82;21085;-64
2022/07/13 10:32:49;;;;;;;4.72;3.15;;;;;;;32.53;38.13;100966.91;1737452;82;21084;-62
2022/07/13 10:35:20;;;;;;;10.08;3.20;;;;;;;32.51;38.04;100963.55;1737575;82;21119;-62
2022/07/13 10:38:06;;;;;;;3.80;2.45;;;;;;;32.75;38.40;100966.88;1737629;82;21053;-62
2022/07/13 10:40:33;;;;;;;8.38;2.87;;;;;;;33.02;38.62;100965.97;1736731;82;21053;-63
2022/07/13 10:43:04;;;;;;;7.08;3.40;;;;;;;33.31;38.06;100967.27;1737532;82;21068;-63
2022/07/13 10:45:41;;;;;;;5.40;2.87;;;;;;;33.24;37.83;100963.16;1737723;82;21084;-62
2022/07/13 10:48:34;;;;;;;6.17;3.02;;;;;;;33.26;37.89;100966.00;1737430;82;21092;-62
2022/07/13 10:51:02;;;;;;;8.13;3.90;;;;;;;32.83;37.79;100960.75;1737167;82;21151;-62
2022/07/13 10:53:45;;;;;;;5.15;2.92;;;;;;;32.38;38.11;100958.01;1737444;82;21069;-62
2022/07/13 10:56:19;;;;;;;6.90;3.43;;;;;;;32.01;38.55;100957.26;1737802;82;21056;-62
2022/07/13 10:58:49;;;;;;;6.85;3.08;;;;;;;31.52;38.57;100957.00;1737564;82;21186;-63
2022/07/13 11:01:36;;;;;;;6.70;2.87;;;;;;;31.19;38.90;100956.59;1737550;81;21144;-65
2022/07/13 11:04:07;;;;;;;6.87;3.10;;;;;;;31.09;39.17;100954.14;1737530;82;21080;-62
2022/07/13 11:06:38;;;;;;;4.70;2.85;;;;;;;30.91;39.60;100956.41;1737397;81;21100;-62
2022/07/13 11:09:14;;;;;;;3.77;2.30;;;;;;;30.59;39.76;100955.73;1737280;82;21081;-62
2022/07/13 11:11:51;;;;;;;4.45;2.33;;;;;;;30.31;39.89;100956.84;1737416;82;21487;-64
2022/07/13 11:14:42;;;;;;;10.48;2.67;;;;;;;30.13;40.01;100949.86;1737562;82;21059;-63
2022/07/13 11:17:15;;;;;;;2.92;2.35;;;;;;;30.14;40.03;100949.37;1737510;82;21089;-63
2022/07/13 11:20:10;;;;;;;7.80;3.08;;;;;;;30.37;39.66;100943.38;1737620;82;21123;-63
2022/07/13 11:25:55;;;;;;;4.62;3.12;;;;;;;30.19;39.58;100927.91;1737550;82;21061;-62
2022/07/13 11:28:30;;;;;;;7.37;3.05;;;;;;;30.13;39.96;100934.09;1737203;82;21077;-62
2022/07/13 11:31:00;;;;;;;7.75;2.92;;;;;;;30.11;40.63;100936.14;1737398;82;21100;-63
2022/07/13 11:33:29;;;;;;;7.03;3.20;;;;;;;30.00;41.44;100938.26;1737570;81;21164;-63
2022/07/13 11:36:00;;;;;;;5.33;2.90;;;;;;;29.94;41.80;100939.00;1737447;82;21084;-63
2022/07/13 11:38:36;;;;;;;5.12;3.12;;;;;;;29.90;41.96;100943.11;1737432;82;21132;-62
2022/07/13 11:41:05;;;;;;;4.78;3.30;;;;;;;29.86;42.06;100951.78;1737337;81;21073;-63
2022/07/13 11:43:34;;;;;;;3.87;2.35;;;;;;;29.74;42.52;100969.02;1737433;82;21570;-63
2022/07/13 11:46:05;;;;;;;11.73;2.72;;;;;;;29.48;43.07;100945.75;1737420;82;21065;-62
2022/07/13 11:48:34;;;;;;;9.85;2.67;;;;;;;29.15;43.45;100944.56;1737426;82;21077;-62
2022/07/13 11:51:12;;;;;;;4.40;2.30;;;;;;;29.19;43.81;100960.80;1737412;82;21520;-62
2022/07/13 11:53:37;;;;;;;3.40;2.45;;;;;;;29.46;43.66;100951.87;1736842;82;21084;-62